Flight Track Log - Related Links

Times and Time Zones

All times are in EDT time to prevent confusion due to time zone crossing. See the VIR20 flight status page for this flight to view local times or setup timezone preferences in your user account.

Time Position Orientation Groundspeed Altitude Reporting Facility
EDT Latitude Longitude Course Direction KTS MPH feet Rate Location/Type
Tue 10:58:01 PM 37.6143 -122.3640 360° North 92 106  Level FlightAware ADS-B
Tue 10:58:17 PM 37.6184 -122.3740 297° West 140 161 429 Level FlightAware ADS-B
Tue 10:58:29 PM 37.6228 -122.3840 299° West 171 197 200 1,364 Climbing FlightAware ADS-B
Tue 10:58:39 PM 37.6264 -122.3930 297° West 170 196 500 1,565 Climbing FlightAware ADS-B
Tue 10:58:52 PM 37.6312 -122.4050 297° West 179 206 800 1,364 Climbing FlightAware ADS-B
Tue 10:59:01 PM 37.6346 -122.4130 298° West 183 211 1,000 2,000 Climbing FlightAware ADS-B
Tue 10:59:13 PM 37.6401 -122.4250 300° West 181 208 1,500 1,833 Climbing FlightAware ADS-B
Tue 10:59:37 PM 37.6501 -122.4470 300° West 180 207 2,100 1,200 Climbing FlightAware ADS-B
Tue 10:59:53 PM 37.6575 -122.4650 297° West 218 251 2,300 938 Climbing FlightAware ADS-B
Tue 11:00:09 PM 37.6653 -122.4820 300° West 231 266 2,600 1,029 Climbing FlightAware ADS-B
Tue 11:00:28 PM 37.6754 -122.5060 298° West 246 283 2,900 1,100 Climbing FlightAware ADS-B
Tue 11:01:09 PM 37.7005 -122.5640 299° West 253 291 3,700 1,347 Climbing FlightAware ADS-B
Tue 11:01:17 PM 37.7080 -122.5730 316° Northwest 285 328 4,000 1,875 Climbing FlightAware ADS-B
Tue 11:01:25 PM 37.7170 -122.5810 325° Northwest 295 339 4,200 1,714 Climbing FlightAware ADS-B
Tue 11:01:38 PM 37.7339 -122.5880 342° North 299 344 4,600 1,846 Climbing FlightAware ADS-B
Tue 11:01:51 PM 37.7520 -122.5880 360° North 302 348 5,000 1,941 Climbing FlightAware ADS-B
Tue 11:02:12 PM 37.7769 -122.5700 30° Northeast 300 345 5,700 2,063 Climbing FlightAware ADS-B
Tue 11:02:23 PM 37.7861 -122.5570 48° Northeast 298 343 6,100 2,308 Climbing FlightAware ADS-B
Tue 11:02:38 PM 37.7987 -122.5340 55° Northeast 297 342 6,700 2,118 Climbing FlightAware ADS-B
Tue 11:03:14 PM 37.8270 -122.4890 51° Northeast 300 345 7,900 2,151 Climbing FlightAware ADS-B
Tue 11:03:31 PM 37.8448 -122.4610 51° Northeast 302 348 8,600 2,149 Climbing FlightAware ADS-B
Tue 11:04:21 PM 37.8902 -122.3940 49° Northeast 310 357 10,300 1,650 Climbing FlightAware ADS-B
Tue 11:04:51 PM 37.9194 -122.3510 49° Northeast 332 382 10,800 1,000 Climbing FlightAware ADS-B
Tue 11:05:33 PM 37.9625 -122.2860 50° Northeast 359 413 11,500 1,000 Climbing FlightAware ADS-B
Tue 11:06:03 PM 37.9960 -122.2360 50° Northeast 381 438 12,000 1,143 Climbing FlightAware ADS-B
Tue 11:06:36 PM 38.0345 -122.1770 50° Northeast 396 456 12,700 1,482 Climbing FlightAware ADS-B
Tue 11:07:28 PM 38.0960 -122.0830 50° Northeast 409 471 14,100 1,571 Climbing FlightAware ADS-B
Tue 11:08:00 PM 38.1330 -122.0270 50° Northeast 417 480 14,900 1,543 Climbing FlightAware ADS-B
Tue 11:08:38 PM 38.1840 -121.9510 49° Northeast 426 490 15,900 1,541 Climbing FlightAware ADS-B
Tue 11:09:14 PM 38.2280 -121.8830 51° Northeast 434 499 16,800 1,500 Climbing FlightAware ADS-B
Tue 11:09:46 PM 38.2720 -121.8170 50° Northeast 442 509 17,600 1,545 Climbing FlightAware ADS-B
Tue 11:10:20 PM 38.3170 -121.7460 51° Northeast 449 517 18,500 1,417 Climbing FlightAware ADS-B
Tue 11:10:58 PM 38.3640 -121.6770 49° Northeast 456 525 19,300 1,457 Climbing FlightAware ADS-B
Tue 11:11:30 PM 38.4080 -121.6080 51° Northeast 461 531 20,200 1,412 Climbing FlightAware ADS-B
Tue 11:12:06 PM 38.4570 -121.5400 47° Northeast 471 542 20,900 1,417 Climbing FlightAware ADS-B
Tue 11:12:42 PM 38.5280 -121.4690 38° Northeast 480 552 21,900 1,500 Climbing FlightAware ADS-B
Tue 11:13:18 PM 38.5920 -121.4110 35° Northeast 488 562 22,700 1,333 Climbing FlightAware ADS-B
Tue 11:13:54 PM 38.6590 -121.3480 36° Northeast 492 566 23,500 1,500 Climbing FlightAware ADS-B
Tue 11:14:26 PM 38.7180 -121.2920 37° Northeast 495 570 24,400 1,588 Climbing FlightAware ADS-B
Tue 11:15:02 PM 38.7840 -121.2280 37° Northeast 499 574 25,300 1,352 Climbing FlightAware ADS-B
Tue 11:15:37 PM 38.8490 -121.1660 37° Northeast 504 580 26,000 1,268 Climbing FlightAware ADS-B
Tue 11:16:13 PM 38.9160 -121.1000 37° Northeast 510 587 26,800 1,235 Climbing FlightAware ADS-B
Tue 11:16:45 PM 38.9780 -121.0410 36° Northeast 516 594 27,400 1,500 Climbing FlightAware ADS-B
Tue 11:17:21 PM 39.0450 -120.9750 37° Northeast 514 592 28,500 1,833 Climbing FlightAware ADS-B
Tue 11:17:57 PM 39.1140 -120.9090 37° Northeast 508 585 29,600 1,750 Climbing FlightAware ADS-B
Tue 11:18:33 PM 39.1820 -120.8430 37° Northeast 506 582 30,600 1,676 Climbing FlightAware ADS-B
Tue 11:19:05 PM 39.2410 -120.7850 37° Northeast 503 579 31,500 1,565 Climbing FlightAware ADS-B
Tue 11:19:42 PM 39.3070 -120.7200 37° Northeast 497 572 32,400 1,250 Climbing FlightAware ADS-B
Tue 11:20:17 PM 39.3730 -120.6560 37° Northeast 498 573 33,000 537 Climbing FlightAware ADS-B
Tue 11:20:49 PM 39.4330 -120.5980 37° Northeast 499 574 33,000  Level FlightAware ADS-B
Tue 11:21:25 PM 39.4990 -120.5320 38° Northeast 498 573 33,000  Level FlightAware ADS-B
Tue 11:22:01 PM 39.5640 -120.4670 38° Northeast 497 572 33,000  Level FlightAware ADS-B
Tue 11:22:39 PM 39.6340 -120.3970 38° Northeast 496 571 33,000 441 Level FlightAware ADS-B
Tue 11:23:09 PM 39.6880 -120.3440 37° Northeast 493 567 33,500 1,059 Climbing FlightAware ADS-B
Tue 11:23:47 PM 39.7560 -120.2760 38° Northeast 493 567 34,200 1,054 Climbing FlightAware ADS-B
Tue 11:24:23 PM 39.8230 -120.2110 37° Northeast 493 567 34,800 667 Climbing FlightAware ADS-B
Tue 11:24:59 PM 39.8870 -120.1460 38° Northeast 494 568 35,000 176 Climbing FlightAware ADS-B
Tue 11:25:31 PM 39.9460 -120.0860 38° Northeast 496 571 35,000  Level FlightAware ADS-B
Tue 11:26:07 PM 40.0110 -120.0210 37° Northeast 499 574 35,000  Level FlightAware ADS-B
Tue 11:26:41 PM 40.0730 -119.9590 37° Northeast 500 575 35,000  Level FlightAware ADS-B
Tue 11:27:15 PM 40.1360 -119.8960 37° Northeast 498 573 35,000  Level FlightAware ADS-B
Tue 11:27:51 PM 40.2020 -119.8300 37° Northeast 496 571 35,000  Level FlightAware ADS-B
Tue 11:28:27 PM 40.2660 -119.7630 39° Northeast 495 570 35,000  Level FlightAware ADS-B
Tue 11:29:03 PM 40.3310 -119.6970 38° Northeast 498 573 35,000  Level FlightAware ADS-B
Tue 11:29:35 PM 40.3890 -119.6350 39° Northeast 500 575 35,000  Level FlightAware ADS-B
Tue 11:30:12 PM 40.4500 -119.5570 44° Northeast 503 579 35,000  Level FlightAware ADS-B
Tue 11:30:47 PM 40.5100 -119.4830 43° Northeast 505 581 35,000  Level FlightAware ADS-B
Tue 11:31:23 PM 40.5720 -119.4050 44° Northeast 507 583 35,000  Level FlightAware ADS-B
Tue 11:31:55 PM 40.6260 -119.3390 43° Northeast 509 586 35,000  Level FlightAware ADS-B
Tue 11:32:31 PM 40.6880 -119.2620 43° Northeast 512 589 35,000  Level FlightAware ADS-B
Tue 11:33:14 PM 40.7570 -119.1760 43° Northeast 513 590 35,000  Level FlightAware ADS-B
Tue 11:33:42 PM 40.8060 -119.1140 44° Northeast 513 590 35,000  Level FlightAware ADS-B
Tue 11:34:23 PM 40.8770 -119.0260 43° Northeast 514 592 35,000  Level FlightAware ADS-B
Tue 11:34:58 PM 40.9310 -118.9590 43° Northeast 515 593 35,000  Level FlightAware ADS-B
Tue 11:35:35 PM 40.9940 -118.8790 44° Northeast 514 592 35,000  Level FlightAware ADS-B
Tue 11:36:16 PM 41.0730 -118.8010 37° Northeast 516 594 35,000  Level FlightAware ADS-B
Tue 11:36:52 PM 41.1450 -118.7440 31° Northeast 518 596 35,000  Level FlightAware ADS-B
Tue 11:37:28 PM 41.2070 -118.6910 33° Northeast 518 596 35,000  Level FlightAware ADS-B
Tue 11:38:04 PM 41.2680 -118.6380 33° Northeast 518 596 35,000  Level FlightAware ADS-B
Tue 11:38:34 PM 41.3600 -118.5610 32° Northeast 520 598 35,000  Level FlightAware ADS-B
Tue 11:39:08 PM 41.4210 -118.5090 33° Northeast 520 598 35,000  Level FlightAware ADS-B
Tue 11:39:47 PM 41.5030 -118.4170 40° Northeast 516 594 35,000  Level FlightAware ADS-B
Tue 11:40:22 PM 41.5610 -118.3330 47° Northeast 513 590 35,000  Level FlightAware ADS-B
Tue 11:40:56 PM 41.6160 -118.2540 47° Northeast 512 589 35,000  Level FlightAware ADS-B
Tue 11:41:32 PM 41.6750 -118.1700 47° Northeast 512 589 35,000  Level FlightAware ADS-B
Tue 11:42:08 PM 41.7320 -118.0860 48° Northeast 512 589 35,000  Level FlightAware ADS-B
Tue 11:42:40 PM 41.7830 -118.0110 48° Northeast 513 590 35,000  Level FlightAware ADS-B
Tue 11:43:16 PM 41.8410 -117.9270 47° Northeast 512 589 35,000  Level FlightAware ADS-B
Tue 11:43:53 PM 41.8990 -117.8420 47° Northeast 513 590 35,000  Level FlightAware ADS-B
Tue 11:44:25 PM 41.9490 -117.7660 48° Northeast 514 592 35,000  Level FlightAware ADS-B
Tue 11:45:01 PM 42.0080 -117.6790 48° Northeast 515 593 35,000  Level FlightAware ADS-B
Tue 11:45:36 PM 42.0660 -117.5950 47° Northeast 521 600 35,000  Level FlightAware ADS-B
Tue 11:46:13 PM 42.1250 -117.5060 48° Northeast 521 600 35,000  Level FlightAware ADS-B
Tue 11:46:44 PM 42.1760 -117.4320 47° Northeast 523 602 35,000  Level FlightAware ADS-B
Tue 11:47:20 PM 42.2350 -117.3420 48° Northeast 522 601 35,000  Level FlightAware ADS-B
Tue 11:47:56 PM 42.2920 -117.2570 48° Northeast 522 601 35,000  Level FlightAware ADS-B
Tue 11:48:32 PM 42.3500 -117.1700 48° Northeast 521 600 35,000  Level FlightAware ADS-B
Tue 11:49:08 PM 42.4080 -117.0830 48° Northeast 521 600 35,000  Level FlightAware ADS-B
Tue 11:49:40 PM 42.4600 -117.0050 48° Northeast 518 596 35,000  Level FlightAware ADS-B
Tue 11:50:16 PM 42.5170 -116.9180 48° Northeast 517 595 35,000  Level FlightAware ADS-B
Tue 11:50:52 PM 42.5740 -116.8310 48° Northeast 517 595 35,000  Level FlightAware ADS-B
Tue 11:51:29 PM 42.6320 -116.7410 49° Northeast 516 594 35,000  Level FlightAware ADS-B
Tue 11:52:00 PM 42.6820 -116.6660 48° Northeast 515 593 35,000  Level FlightAware ADS-B
Tue 11:52:38 PM 42.7420 -116.5720 49° Northeast 515 593 35,000  Level FlightAware ADS-B
Tue 11:53:14 PM 42.7980 -116.4860 48° Northeast 517 595 35,000  Level FlightAware ADS-B
Tue 11:53:46 PM 42.8490 -116.4080 48° Northeast 519 597 35,000  Level FlightAware ADS-B
Tue 11:54:21 PM 42.9050 -116.3220 48° Northeast 522 601 35,000  Level FlightAware ADS-B
Tue 11:54:58 PM 42.9640 -116.2300 49° Northeast 524 603 35,000  Level FlightAware ADS-B
Tue 11:55:30 PM 43.0150 -116.1510 49° Northeast 525 604 35,000  Level FlightAware ADS-B
Tue 11:56:06 PM 43.0730 -116.0600 49° Northeast 528 608 35,000  Level FlightAware ADS-B
Tue 11:56:42 PM 43.1310 -115.9700 49° Northeast 529 609 35,000  Level FlightAware ADS-B
Tue 11:57:19 PM 43.1900 -115.8760 49° Northeast 531 611 35,000  Level FlightAware ADS-B
Tue 11:57:51 PM 43.2410 -115.7950 49° Northeast 533 613 35,000  Level FlightAware ADS-B
Tue 11:58:26 PM 43.2990 -115.7030 49° Northeast 533 613 35,000  Level FlightAware ADS-B
Tue 11:59:04 PM 43.3600 -115.6080 49° Northeast 531 611 35,000  Level FlightAware ADS-B
Tue 11:59:36 PM 43.4120 -115.5270 49° Northeast 532 612 35,000  Level FlightAware ADS-B
Wed 12:00:12 AM 43.4690 -115.4340 50° Northeast 531 611 35,000  Level FlightAware ADS-B
Wed 12:00:50 AM 43.5300 -115.3370 49° Northeast 532 612 35,000  Level FlightAware ADS-B
Wed 12:01:22 AM 43.5820 -115.2520 50° Northeast 532 612 35,000  Level FlightAware ADS-B
Wed 12:01:56 AM 43.6370 -115.1650 49° Northeast 531 611 35,000  Level FlightAware ADS-B
Wed 12:02:32 AM 43.6940 -115.0740 49° Northeast 532 612 35,000  Level FlightAware ADS-B
Wed 12:03:10 AM 43.7550 -114.9760 49° Northeast 534 615 35,000  Level FlightAware ADS-B
Wed 12:03:42 AM 43.8050 -114.8930 50° Northeast 534 615 35,000  Level FlightAware ADS-B
Wed 12:04:18 AM 43.8640 -114.7960 50° Northeast 535 616 35,000  Level FlightAware ADS-B
Wed 12:04:54 AM 43.9220 -114.7050 48° Northeast 534 615 35,000  Level FlightAware ADS-B
Wed 12:05:30 AM 43.9780 -114.6110 50° Northeast 535 616 35,000  Level FlightAware ADS-B
Wed 12:06:02 AM 44.0290 -114.5270 50° Northeast 534 615 35,000  Level FlightAware ADS-B
Wed 12:06:38 AM 44.0840 -114.4380 49° Northeast 534 615 35,000  Level FlightAware ADS-B
Wed 12:07:10 AM 44.1390 -114.3460 50° Northeast 535 616 35,000  Level FlightAware ADS-B
Wed 12:07:46 AM 44.1950 -114.2530 50° Northeast 533 613 35,000  Level FlightAware ADS-B
Wed 12:08:24 AM 44.2560 -114.1530 50° Northeast 534 615 35,000  Level FlightAware ADS-B
Wed 12:09:01 AM 44.3060 -114.0700 50° Northeast 534 615 35,000  Level FlightAware ADS-B
Wed 12:09:37 AM 44.3540 -113.9890 50° Northeast 534 615 35,000  Level FlightAware ADS-B
Wed 12:10:13 AM 44.4030 -113.9080 50° Northeast 534 615 35,000  Level FlightAware ADS-B
Wed 12:10:49 AM 44.4520 -113.8270 50° Northeast 534 615 35,000  Level FlightAware ADS-B
Wed 12:11:25 AM 44.5000 -113.7460 50° Northeast 534 615 35,000  Level FlightAware ADS-B
Wed 12:12:01 AM 44.5490 -113.6650 50° Northeast 534 615 35,000  Level FlightAware ADS-B
Wed 12:12:38 AM 44.5990 -113.5810 50° Northeast 534 615 35,000  Level FlightAware ADS-B
Wed 12:13:14 AM 44.6470 -113.5000 50° Northeast 534 615 35,000  Level FlightAware ADS-B
Wed 12:13:50 AM 44.6960 -113.4180 50° Northeast 534 615 35,000  Level FlightAware ADS-B
Wed 12:14:26 AM 44.7440 -113.3370 50° Northeast 534 615 35,000  Level FlightAware ADS-B
Wed 12:15:02 AM 44.7930 -113.2550 50° Northeast 534 615 35,000  Level FlightAware ADS-B
Wed 12:15:38 AM 44.8420 -113.1730 50° Northeast 534 615 35,000  Level FlightAware ADS-B
Wed 12:16:14 AM 44.8900 -113.0920 50° Northeast 534 615 35,000  Level FlightAware ADS-B
Wed 12:16:50 AM 44.9390 -113.0100 50° Northeast 534 615 35,000  Level FlightAware ADS-B
Wed 12:17:26 AM 44.9870 -112.9280 50° Northeast 534 615 35,000  Level FlightAware ADS-B
Wed 12:18:02 AM 45.0360 -112.8460 50° Northeast 534 615 35,000  Level FlightAware ADS-B
Wed 12:19:16 AM 45.2594 -112.4261 50° Northeast 539 620 35,000  Level Salt Lake Center
Wed 12:20:17 AM 45.3639 -112.2400 51° Northeast 538 619 35,000  Level Salt Lake Center
Wed 12:21:18 AM 45.4581 -112.0728 51° Northeast 535 616 35,000  Level Salt Lake Center
Wed 12:22:19 AM 45.5514 -111.9050 51° Northeast 538 619 35,000  Level Salt Lake Center
Wed 12:23:20 AM 45.6453 -111.7350 52° Northeast 542 624 35,000  Level Salt Lake Center
Wed 12:24:21 AM 45.7375 -111.5672 52° Northeast 537 618 35,000  Level Salt Lake Center
Wed 12:25:22 AM 45.8311 -111.3981 52° Northeast 534 615 35,000  Level Salt Lake Center
Wed 12:26:23 AM 45.9281 -111.2219 52° Northeast 544 626 35,000  Level Salt Lake Center
Wed 12:27:24 AM 46.0206 -111.0464 53° Northeast 543 625 35,000  Level Salt Lake Center
Wed 12:28:25 AM 46.1131 -110.8736 52° Northeast 540 621 35,000  Level Salt Lake Center
Wed 12:29:26 AM 46.1958 -110.7181 52° Northeast 540 621 35,000  Level Salt Lake Center
Wed 12:30:27 AM 46.2872 -110.5461 52° Northeast 541 623 35,000  Level Salt Lake Center
Wed 12:31:28 AM 46.3794 -110.3711 53° Northeast 545 627 35,000  Level Salt Lake Center
Wed 12:32:29 AM 46.4889 -110.1633 53° Northeast 542 624 35,000  Level Salt Lake Center
Wed 12:33:30 AM 46.5808 -109.9858 53° Northeast 547 629 35,000  Level Salt Lake Center
Wed 12:34:31 AM 46.6731 -109.8069 53° Northeast 551 634 35,000  Level Salt Lake Center
Wed 12:35:32 AM 46.7636 -109.6253 54° Northeast 555 639 35,000  Level Salt Lake Center
Wed 12:36:33 AM 46.8572 -109.4453 53° Northeast 559 643 35,000  Level Salt Lake Center
Wed 12:37:34 AM 46.9461 -109.2669 54° Northeast 556 640 35,000  Level Salt Lake Center
Wed 12:38:35 AM 47.0367 -109.0869 54° Northeast 552 635 35,000  Level Salt Lake Center
Wed 12:39:36 AM 47.1292 -108.9025 54° Northeast 548 631 35,000  Level Salt Lake Center
Wed 12:40:37 AM 47.2200 -108.7181 54° Northeast 556 640 35,000  Level Salt Lake Center
Wed 12:41:38 AM 47.3086 -108.5397 54° Northeast 563 648 35,000  Level Salt Lake Center
Wed 12:42:39 AM 47.3981 -108.3569 54° Northeast 556 640 35,000  Level Salt Lake Center
Wed 12:43:40 AM 47.4869 -108.1733 54° Northeast 551 634 35,000  Level Salt Lake Center
Wed 12:44:41 AM 47.5758 -107.9897 54° Northeast 551 634 35,000  Level Salt Lake Center
Wed 12:45:41 AM 47.6822 -107.7661 55° Northeast 554 638 35,000  Level Salt Lake Center
Wed 12:46:42 AM 47.7697 -107.5800 55° Northeast 553 636 35,000  Level Salt Lake Center
Wed 12:47:43 AM 47.8594 -107.3947 54° Northeast 556 640 35,000  Level Salt Lake Center
Wed 12:48:44 AM 47.9478 -107.2053 55° Northeast 558 642 35,000  Level Salt Lake Center
Wed 12:49:45 AM 48.0358 -107.0150 55° Northeast 558 642 35,000  Level Salt Lake Center
Wed 12:50:45 AM 48.1236 -106.8231 56° Northeast 558 642 35,000  Level Salt Lake Center
Wed 12:56:22 AM 48.5430 -105.9600 56° Northeast 560 644 35,000  Level FlightAware ADS-B
Wed 12:56:59 AM 48.5920 -105.8620 53° Northeast 560 644 35,000  Level FlightAware ADS-B
Wed 12:57:36 AM 48.6410 -105.7630 53° Northeast 560 644 35,000  Level FlightAware ADS-B
Wed 12:58:12 AM 48.6890 -105.6670 53° Northeast 560 644 35,000  Level FlightAware ADS-B
Wed 12:58:48 AM 48.7360 -105.5720 53° Northeast 560 644 35,000  Level FlightAware ADS-B
Wed 12:59:24 AM 48.7840 -105.4750 53° Northeast 560 644 35,000  Level FlightAware ADS-B
Wed 12:59:53 AM 48.7470 -105.5360 227° Southwest 560 644 35,000  Level FlightAware ADS-B
Wed 01:00:33 AM 48.8090 -105.4050 54° Northeast 560 644 35,000  Level FlightAware ADS-B
Wed 01:01:14 AM 48.8870 -105.2430 54° Northeast 560 644 35,000  Level FlightAware ADS-B
Wed 01:01:59 AM 48.9440 -105.1230 54° Northeast 561 646 35,000  Level FlightAware ADS-B
Wed 01:02:41 AM 49.0340 -104.9280 55° Northeast 561 646 35,000  Level FlightAware ADS-B
Wed 01:03:27 AM 49.1260 -104.7320 54° Northeast 562 647 35,000  Level FlightAware ADS-B
Wed 01:04:19 AM 49.1920 -104.5940 54° Northeast 562 647 35,000  Level FlightAware ADS-B
Wed 01:05:02 AM 49.2480 -104.4700 55° Northeast 560 644 35,000  Level FlightAware ADS-B
Wed 01:05:43 AM 49.2930 -104.3720 55° Northeast 560 644 35,000  Level FlightAware ADS-B
Wed 01:06:19 AM 49.3400 -104.2740 54° Northeast 560 644 35,000  Level FlightAware ADS-B
Wed 01:06:56 AM 49.3880 -104.1730 54° Northeast 560 644 35,000  Level FlightAware ADS-B
Wed 01:07:32 AM 49.4340 -104.0740 54° Northeast 560 644 35,000  Level FlightAware ADS-B
Wed 01:08:08 AM 49.4810 -103.9750 54° Northeast 560 644 35,000  Level FlightAware ADS-B
Wed 01:08:45 AM 49.5290 -103.8740 54° Northeast 560 644 35,000  Level FlightAware ADS-B
Wed 01:09:21 AM 49.5750 -103.7750 54° Northeast 560 644 35,000  Level FlightAware ADS-B
Wed 01:09:57 AM 49.6220 -103.6760 54° Northeast 560 644 35,000  Level FlightAware ADS-B
Wed 01:10:33 AM 49.6690 -103.5770 54° Northeast 560 644 35,000  Level FlightAware ADS-B
Wed 01:11:09 AM 49.7150 -103.4780 54° Northeast 560 644 35,000  Level FlightAware ADS-B
Wed 01:11:45 AM 49.7620 -103.3790 54° Northeast 560 644 35,000  Level FlightAware ADS-B
Wed 01:12:21 AM 49.8080 -103.2790 54° Northeast 560 644 35,000  Level FlightAware ADS-B
Wed 01:12:57 AM 49.8550 -103.1800 54° Northeast 560 644 35,000  Level FlightAware ADS-B
Wed 01:13:33 AM 49.9010 -103.0800 54° Northeast 560 644 35,000  Level FlightAware ADS-B
Wed 01:14:09 AM 49.9480 -102.9810 54° Northeast 560 644 35,000  Level FlightAware ADS-B
Wed 01:14:45 AM 49.9950 -102.8810 54° Northeast 560 644 35,000  Level FlightAware ADS-B
Wed 01:15:23 AM 50.3310 -102.0050 59° Northeast 566 651 35,000  Level FlightAware ADS-B
Wed 01:15:59 AM 50.3840 -101.8810 56° Northeast 567 652 35,000  Level FlightAware ADS-B
Wed 01:16:41 AM 50.4370 -101.7590 56° Northeast 567 652 35,000  Level FlightAware ADS-B
Wed 01:17:17 AM 50.4950 -101.6130 58° Northeast 568 654 35,000  Level FlightAware ADS-B
Wed 01:17:47 AM 50.5360 -101.5160 56° Northeast 568 654 35,000  Level FlightAware ADS-B
Wed 01:18:22 AM 50.5810 -101.4050 57° Northeast 567 652 35,000  Level FlightAware ADS-B
Wed 01:18:54 AM 50.6330 -101.2770 57° Northeast 568 654 35,000  Level FlightAware ADS-B
Wed 01:19:37 AM 50.6930 -101.1310 57° Northeast 568 654 35,000  Level FlightAware ADS-B
Wed 01:20:14 AM 50.7380 -101.0210 57° Northeast 568 654 35,000  Level FlightAware ADS-B
Wed 01:20:52 AM 50.8000 -100.8650 58° Northeast 567 652 35,000  Level FlightAware ADS-B
Wed 01:21:24 AM 50.8450 -100.7530 57° Northeast 567 652 35,000  Level FlightAware ADS-B
Wed 01:22:03 AM 50.8940 -100.6300 58° Northeast 567 652 35,000  Level FlightAware ADS-B
Wed 01:22:43 AM 50.9490 -100.4940 57° Northeast 567 652 35,000  Level FlightAware ADS-B
Wed 01:23:18 AM 51.0020 -100.3560 59° Northeast 566 651 35,000  Level FlightAware ADS-B
Wed 01:23:54 AM 51.0540 -100.2260 57° Northeast 565 650 35,000  Level FlightAware ADS-B
Wed 01:24:42 AM 51.1200 -100.0570 58° Northeast 565 650 35,000  Level FlightAware ADS-B
Wed 01:25:19 AM 51.1700 -99.9290 58° Northeast 566 651 35,000  Level FlightAware ADS-B
Wed 01:25:54 AM 51.2170 -99.8050 59° Northeast 567 652 35,000  Level FlightAware ADS-B
Wed 01:26:26 AM 51.2620 -99.6870 59° Northeast 567 652 35,000  Level FlightAware ADS-B
Wed 01:27:04 AM 51.3110 -99.5660 57° Northeast 569 655 35,000  Level FlightAware ADS-B
Wed 01:27:38 AM 51.3600 -99.4330 59° Northeast 570 656 35,000  Level FlightAware ADS-B
Wed 01:28:17 AM 51.4090 -99.3060 58° Northeast 570 656 35,000  Level FlightAware ADS-B
Wed 01:28:53 AM 51.4520 -99.1960 58° Northeast 570 656 35,000  Level FlightAware ADS-B
Wed 01:29:29 AM 51.5050 -99.0480 60° Northeast 573 659 35,000  Level FlightAware ADS-B
Wed 01:30:04 AM 51.5610 -98.8950 59° Northeast 574 661 35,000  Level FlightAware ADS-B
Wed 01:30:40 AM 51.6080 -98.7710 59° Northeast 574 661 35,000  Level FlightAware ADS-B
Wed 01:31:24 AM 51.6700 -98.6020 59° Northeast 573 659 35,000  Level FlightAware ADS-B
Wed 01:32:04 AM 51.7240 -98.4590 59° Northeast 574 661 35,000  Level FlightAware ADS-B
Wed 01:32:38 AM 51.7650 -98.3480 59° Northeast 575 662 35,000  Level FlightAware ADS-B
Wed 01:33:15 AM 51.8080 -98.2320 59° Northeast 575 662 35,000  Level FlightAware ADS-B
Wed 01:33:51 AM 51.8500 -98.1190 59° Northeast 575 662 35,000  Level FlightAware ADS-B
Wed 01:34:27 AM 51.8910 -98.0060 60° Northeast 575 662 35,000  Level FlightAware ADS-B
Wed 01:35:03 AM 51.9330 -97.8930 59° Northeast 575 662 35,000  Level FlightAware ADS-B
Wed 01:35:39 AM 51.9750 -97.7800 59° Northeast 575 662 35,000  Level FlightAware ADS-B
Wed 01:36:15 AM 52.0170 -97.6660 59° Northeast 575 662 35,000  Level FlightAware ADS-B
Wed 01:36:52 AM 52.0600 -97.5500 59° Northeast 575 662 35,000  Level FlightAware ADS-B
Wed 01:37:29 AM 52.1030 -97.4330 59° Northeast 575 662 35,000  Level FlightAware ADS-B
Wed 01:38:05 AM 52.1450 -97.3190 59° Northeast 575 662 35,000  Level FlightAware ADS-B
Wed 01:38:41 AM 52.1870 -97.2060 59° Northeast 575 662 35,000  Level FlightAware ADS-B
Wed 01:39:17 AM 52.2290 -97.0920 59° Northeast 575 662 35,000  Level FlightAware ADS-B
Wed 01:39:53 AM 52.2710 -96.9780 59° Northeast 575 662 35,000  Level FlightAware ADS-B
Wed 01:40:30 AM 52.3140 -96.8600 59° Northeast 575 662 35,000  Level FlightAware ADS-B
Wed 01:41:06 AM 52.3560 -96.7460 59° Northeast 575 662 35,000  Level FlightAware ADS-B
Wed 01:41:42 AM 52.3980 -96.6320 59° Northeast 575 662 35,000  Level FlightAware ADS-B
Wed 01:42:48 AM 52.5667 -96.0500 59° Northeast 570 656 35,000  Level Winnipeg Center
Wed 01:43:48 AM 52.6500 -95.8333 58° Northeast 580 667 35,000  Level Winnipeg Center
Wed 01:44:48 AM 52.7333 -95.6167 58° Northeast 580 667 35,000  Level Winnipeg Center
Wed 01:45:48 AM 52.8333 -95.3833 55° Northeast 570 656 35,000  Level Winnipeg Center
Wed 01:46:48 AM 52.9167 -95.1667 57° Northeast 580 667 35,000  Level Winnipeg Center
Wed 01:47:48 AM 52.9833 -94.9333 65° Northeast 580 667 35,000  Level Winnipeg Center
Wed 01:48:48 AM 53.0667 -94.6833 61° Northeast 580 667 35,000  Level Winnipeg Center
Wed 01:49:48 AM 53.1500 -94.4500 59° Northeast 580 667 35,000  Level Winnipeg Center
Wed 01:50:48 AM 53.2500 -94.2167 54° Northeast 580 667 35,000  Level Winnipeg Center
Wed 01:51:48 AM 53.3167 -94.0000 63° Northeast 580 667 35,000  Level Winnipeg Center
Wed 01:52:48 AM 53.4000 -93.7333 62° Northeast 580 667 35,000  Level Winnipeg Center
Wed 01:53:48 AM 53.5000 -93.5000 54° Northeast 590 679 35,000  Level Winnipeg Center
Wed 01:54:48 AM 53.5667 -93.2667 64° Northeast 590 679 35,000  Level Winnipeg Center
Wed 01:55:48 AM 53.6500 -93.0333 59° Northeast 590 679 35,000  Level Winnipeg Center
Wed 01:56:48 AM 53.7167 -92.8000 64° Northeast 590 679 35,000  Level Winnipeg Center
Wed 01:57:48 AM 53.8167 -92.5333 57° Northeast 590 679 35,000  Level Winnipeg Center
Wed 01:58:48 AM 53.8833 -92.3000 64° Northeast 590 679 35,000  Level Winnipeg Center
Wed 01:59:48 AM 53.9833 -92.0667 54° Northeast 590 679 35,000  Level Winnipeg Center
Wed 02:00:48 AM 54.0500 -91.8333 64° Northeast 590 679 35,000  Level Winnipeg Center
Wed 02:01:48 AM 54.1333 -91.5667 62° Northeast 590 679 35,000  Level Winnipeg Center
Wed 02:02:48 AM 54.2000 -91.3167 65° Northeast 590 679 35,000  Level Winnipeg Center
Wed 02:03:48 AM 54.2833 -91.0833 58° Northeast 590 679 35,000  Level Winnipeg Center
Wed 02:04:48 AM 54.3667 -90.8167 62° Northeast 590 679 35,000  Level Winnipeg Center
Wed 02:05:48 AM 54.4333 -90.5667 65° Northeast 590 679 35,000  Level Winnipeg Center
Wed 02:06:48 AM 54.5167 -90.3167 60° Northeast 590 679 35,000  Level Winnipeg Center
Wed 02:07:48 AM 54.5833 -90.0833 64° Northeast 590 679 35,000  Level Winnipeg Center
Wed 02:08:48 AM 54.6333 -89.8167 72° East 590 679 35,000  Level Winnipeg Center
Wed 02:09:48 AM 54.6833 -89.5167 74° East 600 690 35,000  Level Winnipeg Center
Wed 02:10:48 AM 54.7167 -89.2500 78° East 590 679 35,000  Level Winnipeg Center
Wed 02:11:48 AM 54.7667 -88.9667 73° East 600 690 35,000  Level Winnipeg Center
Wed 02:12:48 AM 54.8000 -88.7000 78° East 600 690 35,000  Level Winnipeg Center
Wed 02:13:48 AM 54.8500 -88.4000 74° East 600 690 35,000  Level Winnipeg Center
Wed 02:14:48 AM 54.8833 -88.1333 78° East 600 690 35,000  Level Winnipeg Center
Wed 02:15:48 AM 54.9333 -87.8500 73° East 600 690 35,000  Level Winnipeg Center
Wed 02:16:48 AM 54.9500 -87.5500 84° East 600 690 35,000  Level Winnipeg Center
Wed 02:17:48 AM 55.0000 -87.2833 72° East 600 690 35,000  Level Winnipeg Center
Wed 02:18:48 AM 55.0333 -86.9833 79° East 600 690 35,000  Level Winnipeg Center
Wed 02:19:48 AM 55.0667 -86.7000 78° East 600 690 35,000  Level Winnipeg Center
Wed 02:20:48 AM 55.1000 -86.4000 79° East 600 690 35,000  Level Winnipeg Center
Wed 02:21:48 AM 55.1500 -86.1333 72° East 600 690 35,000  Level Winnipeg Center
Wed 02:22:48 AM 55.1667 -85.8167 85° East 600 690 35,000  Level Winnipeg Center
Wed 02:23:48 AM 55.2000 -85.5500 78° East 600 690 35,000  Level Winnipeg Center
Wed 02:24:48 AM 55.2333 -85.2667 78° East 600 690 35,000  Level Winnipeg Center
Wed 02:25:48 AM 55.2667 -84.9667 79° East 610 702 35,000  Level Winnipeg Center
Wed 02:26:48 AM 55.3000 -84.6833 78° East 600 690 35,000  Level Winnipeg Center
Wed 02:27:48 AM 55.3333 -84.3833 79° East 600 690 35,000  Level Winnipeg Center
Wed 02:28:48 AM 55.3500 -84.1000 84° East 600 690 35,000  Level Winnipeg Center
Wed 02:29:48 AM 55.3833 -83.8167 78° East 630 725 35,000  Level Winnipeg Center
Wed 02:30:48 AM 55.4167 -83.5167 79° East 600 690 35,000  Level Winnipeg Center
Wed 02:31:48 AM 55.4500 -83.2333 78° East 600 690 35,000  Level Winnipeg Center
Wed 02:32:48 AM 55.4667 -82.9667 84° East 600 690 35,000  Level Winnipeg Center
Wed 02:33:48 AM 55.5000 -82.6167 80° East 590 679 35,000  Level Winnipeg Center
Wed 02:34:48 AM 55.5167 -82.3500 84° East 600 690 35,000  Level Winnipeg Center
Wed 02:35:48 AM 55.5500 -82.0667 78° East 600 690 35,000  Level Winnipeg Center
Wed 02:36:48 AM 55.5667 -81.7833 84° East 600 690 35,000  Level Winnipeg Center
Wed 02:37:48 AM 55.5833 -81.4833 84° East 600 690 35,000  Level Winnipeg Center
Wed 02:38:48 AM 55.6000 -81.2000 84° East 600 690 35,000  Level Winnipeg Center
Wed 02:39:48 AM 55.6167 -80.9167 84° East 600 690 35,000  Level Winnipeg Center
Wed 02:40:48 AM 55.6500 -80.6000 79° East 600 690 35,000  Level Winnipeg Center
Wed 02:41:48 AM 55.6667 -80.3167 84° East 600 690 35,000  Level Winnipeg Center
Wed 02:42:48 AM 55.6833 -80.0500 84° East 600 690 35,000  Level Winnipeg Center
Wed 02:43:48 AM 55.7167 -79.7500 79° East 600 690 35,000  Level Winnipeg Center
Wed 02:44:48 AM 55.7833 -79.4833 66° East 590 679 35,000  Level Winnipeg Center
Wed 02:45:48 AM 55.8333 -79.2167 71° East 600 690 35,000  Level Winnipeg Center
Wed 02:46:48 AM 55.8833 -78.9167 73° East 600 690 35,000  Level Winnipeg Center
Wed 02:47:48 AM 55.9500 -78.6333 67° East 590 679 35,000  Level Winnipeg Center
Wed 02:48:48 AM 56.0167 -78.3333 68° East 600 690 35,000  Level Winnipeg Center
Wed 02:49:48 AM 56.0667 -78.0500 72° East 600 690 35,000  Level Winnipeg Center
Wed 02:50:48 AM 56.1167 -77.7833 71° East 600 690 35,000  Level Winnipeg Center
Wed 02:51:48 AM 56.1667 -77.5167 71° East 610 702 35,000  Level Winnipeg Center
Wed 02:52:48 AM 56.2333 -77.2000 69° East 600 690 35,000  Level Winnipeg Center
Wed 02:53:48 AM 56.2667 -76.9333 77° East 600 690 35,000  Level Winnipeg Center
Wed 02:54:48 AM 56.3333 -76.6500 67° East 600 690 35,000  Level Winnipeg Center
Wed 02:55:48 AM 56.3833 -76.3667 72° East 600 690 35,000  Level Winnipeg Center
Wed 02:56:48 AM 56.4167 -76.1000 77° East 600 690 35,000  Level Winnipeg Center
Wed 02:57:48 AM 56.4833 -75.7833 69° East 600 690 35,000  Level Winnipeg Center
Wed 02:58:48 AM 56.5333 -75.5000 72° East 600 690 35,000  Level Winnipeg Center
Wed 02:59:48 AM 56.5667 -75.2333 77° East 600 690 35,000  Level Winnipeg Center
Wed 03:00:48 AM 56.6167 -74.9500 72° East 590 679 35,000  Level Winnipeg Center
Wed 03:01:48 AM 56.6667 -74.6667 72° East 600 690 35,000  Level Winnipeg Center
Wed 03:02:55 AM 56.7500 -74.4333 57° Northeast 590 679 35,000  Level Montreal Center
Wed 03:03:55 AM 56.8167 -74.1833 64° Northeast 590 679 35,000  Level Montreal Center
Wed 03:04:55 AM 56.8500 -73.8667 79° East 590 679 35,000  Level Montreal Center
Wed 03:05:55 AM 56.9000 -73.5833 72° East 600 690 35,000  Level Montreal Center
Wed 03:06:55 AM 56.9500 -73.2833 73° East 600 690 35,000  Level Montreal Center
Wed 03:07:55 AM 56.9667 -73.0000 84° East 600 690 35,000  Level Montreal Center
Wed 03:08:55 AM 57.0333 -72.6833 69° East 600 690 35,000  Level Montreal Center
Wed 03:09:55 AM 57.0833 -72.3667 74° East 600 690 35,000  Level Montreal Center
Wed 03:10:55 AM 57.1167 -72.0833 78° East 590 679 35,000  Level Montreal Center
Wed 03:11:55 AM 57.1667 -71.8000 72° East 590 679 35,000  Level Montreal Center
Wed 03:12:55 AM 57.2000 -71.4833 79° East 590 679 35,000  Level Montreal Center
Wed 03:13:55 AM 57.2333 -71.2000 78° East 590 679 35,000  Level Montreal Center
Wed 03:14:55 AM 57.2833 -70.8833 74° East 590 679 35,000  Level Montreal Center
Wed 03:15:55 AM 57.3000 -70.6000 84° East 590 679 35,000  Level Montreal Center
Wed 03:16:55 AM 57.3333 -70.3167 78° East 590 679 35,000  Level Montreal Center
Wed 03:17:55 AM 57.3833 -70.0333 72° East 590 679 35,000  Level Montreal Center
Wed 03:18:55 AM 57.4167 -69.7167 79° East 590 679 35,000  Level Montreal Center
Wed 03:19:55 AM 57.4500 -69.4167 78° East 580 667 35,000  Level Montreal Center
Wed 03:20:55 AM 57.4833 -69.1000 79° East 580 667 35,000  Level Montreal Center
Wed 03:21:55 AM 57.5167 -68.8167 78° East 580 667 35,000  Level Montreal Center
Wed 03:22:55 AM 57.5500 -68.5167 78° East 580 667 35,000  Level Montreal Center
Wed 03:23:55 AM 57.5833 -68.2333 78° East 580 667 35,000  Level Montreal Center
Wed 03:24:55 AM 57.6167 -67.9333 78° East 580 667 35,000  Level Montreal Center
Wed 03:25:55 AM 57.6500 -67.6167 79° East 580 667 35,000  Level Montreal Center
Wed 03:26:55 AM 57.6667 -67.3333 84° East 580 667 35,000  Level Montreal Center
Wed 03:27:55 AM 57.7000 -67.0333 78° East 580 667 35,000  Level Montreal Center
Wed 03:28:55 AM 57.7167 -66.7500 84° East 580 667 35,000  Level Montreal Center
Wed 03:29:55 AM 57.7500 -66.4167 79° East 570 656 35,000  Level Montreal Center
Wed 03:30:55 AM 57.7833 -66.1333 77° East 570 656 35,000  Level Montreal Center
Wed 03:31:55 AM 57.8000 -65.8333 84° East 570 656 35,000  Level Montreal Center
Wed 03:32:55 AM 57.8333 -65.5333 78° East 570 656 35,000  Level Montreal Center
Wed 03:33:55 AM 57.8667 -65.2500 77° East 570 656 35,000  Level Montreal Center
Wed 03:34:55 AM 57.8833 -64.9500 84° East 570 656 35,000  Level Montreal Center
Wed 03:35:55 AM 57.9000 -64.6667 84° East 560 644 35,000  Level Montreal Center
Wed 03:36:55 AM 57.9167 -64.4000 83° East 560 644 35,000  Level Montreal Center
Wed 03:37:55 AM 57.9500 -64.1000 78° East 560 644 35,000  Level Montreal Center
Wed 03:38:55 AM 57.9667 -63.8000 84° East 560 644 35,000  Level Montreal Center
Wed 03:39:55 AM 58.0000 -63.5000 78° East 570 656 35,000  Level Montreal Center
Wed 03:40:55 AM 58.0000 -63.2167 90° East 570 656 35,000  Level Montreal Center
Wed 03:41:55 AM 58.0167 -62.9167 84° East 570 656 35,000  Level Montreal Center
Wed 03:42:55 AM 58.0167 -62.6000 90° East 560 644 35,000  Level Montreal Center
Wed 03:43:55 AM 58.0167 -62.3000 90° East 570 656 35,000  Level Montreal Center
Wed 03:44:55 AM 58.0333 -62.0167 84° East 560 644 35,000  Level Montreal Center
Wed 03:45:55 AM 58.0333 -61.7500 90° East 550 633 35,000  Level Montreal Center
Wed 03:46:55 AM 58.0167 -61.4667 96° East 550 633 35,000  Level Montreal Center
Wed 03:47:55 AM 58.0333 -61.1667 84° East 560 644 35,000  Level Montreal Center
Wed 03:48:55 AM 58.0333 -60.8833 90° East 560 644 35,000  Level Montreal Center
Wed 03:49:55 AM 58.0333 -60.5500 90° East 560 644 35,000  Level Montreal Center
Wed 03:50:55 AM 58.0333 -60.2667 90° East 560 644 35,000  Level Montreal Center
Wed 03:51:55 AM 58.0333 -59.9833 90° East 560 644 35,000  Level Montreal Center
Wed 03:52:55 AM 58.0500 -59.6833 84° East 560 644 35,000  Level Montreal Center
Wed 03:53:55 AM 58.1000 -59.4000 71° East 560 644 35,000  Level Montreal Center
Wed 03:54:55 AM 58.1333 -59.1167 77° East 560 644 35,000  Level Montreal Center
Wed 03:55:55 AM 58.1500 -58.8500 83° East 560 644 35,000  Level Montreal Center
Wed 03:56:55 AM 58.2000 -58.5333 73° East 560 644 35,000  Level Montreal Center
Wed 03:57:49 AM 58.2333 -58.3000 75° East 560 644 35,000  Level Gander Center
Wed 03:58:49 AM 58.2667 -58.0167 77° East 560 644 35,000  Level Gander Center
Wed 03:59:49 AM 58.3000 -57.7333 77° East 550 633 35,000  Level Gander Center
Wed 04:00:49 AM 58.3333 -57.4667 76° East 550 633 35,000  Level Gander Center
Wed 04:01:49 AM 58.3667 -57.1833 77° East 550 633 35,000  Level Gander Center
Wed 04:02:49 AM 58.4000 -56.9000 77° East 550 633 35,000  Level Gander Center
Wed 04:03:49 AM 58.4333 -56.6000 78° East 550 633 35,000  Level Gander Center
Wed 04:04:49 AM 58.4667 -56.3500 76° East 540 621 35,000  Level Gander Center
Wed 04:05:49 AM 58.5000 -56.0833 76° East 530 610 35,000  Level Gander Center
Wed 04:06:49 AM 58.5167 -55.7833 84° East 530 610 35,000  Level Gander Center
Wed 04:07:49 AM 58.5500 -55.5333 76° East 520 598 35,000  Level Gander Center
Wed 04:08:49 AM 58.5667 -55.2667 83° East 510 587 35,000  Level Gander Center
Wed 04:09:49 AM 58.6000 -54.9833 77° East 510 587 35,000  Level Gander Center
Wed 04:10:49 AM 58.6333 -54.7167 76° East 510 587 35,000  Level Gander Center
Wed 04:11:49 AM 58.6500 -54.5167 81° East 500 575 35,000 12 Level Gander Center
Wed 04:13:00 AM 58.6810 -54.1883 80° East  Level FlightAware Approximate
Wed 04:20:00 AM 58.8475 -52.2343 80° East  Level FlightAware Approximate
Wed 04:21:00 AM 58.8688 -51.9537 82° East  Level FlightAware Approximate
Wed 04:22:00 AM 58.8895 -51.6727 82° East  Level FlightAware Approximate
Wed 04:23:00 AM 58.9097 -51.3914 82° East  Level FlightAware Approximate
Wed 04:24:00 AM 58.9292 -51.1098 82° East  Level FlightAware Approximate
Wed 04:25:00 AM 58.9481 -50.8279 82° East  Level FlightAware Approximate
Wed 04:26:00 AM 58.9664 -50.5457 83° East  Level FlightAware Approximate
Wed 04:27:00 AM 58.9841 -50.2631 83° East  Level FlightAware Approximate
Wed 04:28:00 AM 59.0008 -49.9803 86° East  Level FlightAware Approximate
Wed 04:29:00 AM 59.0114 -49.6962 86° East  Level FlightAware Approximate
Wed 04:30:00 AM 59.0214 -49.4119 86° East  Level FlightAware Approximate
Wed 04:31:00 AM 59.0307 -49.1275 86° East  Level FlightAware Approximate
Wed 04:32:00 AM 59.0395 -48.8429 86° East  Level FlightAware Approximate
Wed 04:33:00 AM 59.0476 -48.5581 87° East  Level FlightAware Approximate
Wed 04:34:00 AM 59.0551 -48.2733 87° East  Level FlightAware Approximate
Wed 04:35:00 AM 59.0620 -47.9883 87° East  Level FlightAware Approximate
Wed 04:36:00 AM 59.0682 -47.7032 87° East  Level FlightAware Approximate
Wed 04:37:00 AM 59.0738 -47.4180 88° East  Level FlightAware Approximate
Wed 04:38:00 AM 59.0788 -47.1328 88° East  Level FlightAware Approximate
Wed 04:39:00 AM 59.0832 -46.8474 88° East  Level FlightAware Approximate
Wed 04:40:00 AM 59.0870 -46.5620 88° East  Level FlightAware Approximate
Wed 04:41:00 AM 59.0901 -46.2765 89° East  Level FlightAware Approximate
Wed 04:42:00 AM 59.0926 -45.9910 89° East  Level FlightAware Approximate
Wed 04:43:00 AM 59.0944 -45.7054 89° East  Level FlightAware Approximate
Wed 04:44:00 AM 59.0957 -45.4199 89° East  Level FlightAware Approximate
Wed 04:45:00 AM 59.0963 -45.1343 90° East  Level FlightAware Approximate
Wed 04:46:00 AM 59.0963 -44.8487 90° East  Level FlightAware Approximate
Wed 04:47:00 AM 59.0956 -44.5631 90° East  Level FlightAware Approximate
Wed 04:48:00 AM 59.0943 -44.2775 90° East  Level FlightAware Approximate
Wed 04:49:00 AM 59.0924 -43.9919 91° East  Level FlightAware Approximate
Wed 04:50:00 AM 59.0899 -43.7064 91° East  Level FlightAware Approximate
Wed 04:51:00 AM 59.0868 -43.4209 91° East  Level FlightAware Approximate
Wed 04:52:00 AM 59.0830 -43.1355 91° East  Level FlightAware Approximate
Wed 04:53:00 AM 59.0786 -42.8502 92° East  Level FlightAware Approximate
Wed 04:54:00 AM 59.0735 -42.5649 92° East  Level FlightAware Approximate
Wed 04:55:00 AM 59.0679 -42.2797 92° East  Level FlightAware Approximate
Wed 04:56:00 AM 59.0616 -41.9947 92° East  Level FlightAware Approximate
Wed 04:57:00 AM 59.0547 -41.7097 93° East  Level FlightAware Approximate
Wed 04:58:00 AM 59.0471 -41.4248 93° East  Level FlightAware Approximate
Wed 04:59:00 AM 59.0390 -41.1401 93° East  Level FlightAware Approximate
Wed 05:00:00 AM 59.0302 -40.8555 93° East  Level FlightAware Approximate
Wed 05:01:00 AM 59.0208 -40.5711 94° East  Level FlightAware Approximate
Wed 05:02:00 AM 59.0108 -40.2868 94° East  Level FlightAware Approximate
Wed 05:03:00 AM 59.0001 -40.0027 94° East  Level FlightAware Approximate
Wed 05:04:00 AM 59.0106 -39.7187 86° East  Level FlightAware Approximate
Wed 05:05:00 AM 59.0206 -39.4344 86° East  Level FlightAware Approximate
Wed 05:06:00 AM 59.0300 -39.1500 86° East  Level FlightAware Approximate
Wed 05:07:00 AM 59.0388 -38.8654 86° East  Level FlightAware Approximate
Wed 05:08:00 AM 59.0470 -38.5807 87° East  Level FlightAware Approximate
Wed 05:09:00 AM 59.0545 -38.2958 87° East  Level FlightAware Approximate
Wed 05:10:00 AM 59.0615 -38.0109 87° East  Level FlightAware Approximate
Wed 05:11:00 AM 59.0678 -37.7258 87° East  Level FlightAware Approximate
Wed 05:12:00 AM 59.0734 -37.4406 88° East  Level FlightAware Approximate
Wed 05:13:00 AM 59.0785 -37.1553 88° East  Level FlightAware Approximate
Wed 05:14:00 AM 59.0829 -36.8700 88° East  Level FlightAware Approximate
Wed 05:15:00 AM 59.0867 -36.5846 88° East  Level FlightAware Approximate
Wed 05:16:00 AM 59.0899 -36.2991 89° East  Level FlightAware Approximate
Wed 05:17:00 AM 59.0924 -36.0136 89° East  Level FlightAware Approximate
Wed 05:18:00 AM 59.0943 -35.7281 89° East  Level FlightAware Approximate
Wed 05:19:00 AM 59.0956 -35.4425 89° East  Level FlightAware Approximate
Wed 05:20:00 AM 59.0963 -35.1569 90° East  Level FlightAware Approximate
Wed 05:21:00 AM 59.0963 -34.8713 90° East  Level FlightAware Approximate
Wed 05:22:00 AM 59.0957 -34.5857 90° East  Level FlightAware Approximate
Wed 05:23:00 AM 59.0945 -34.3001 90° East  Level FlightAware Approximate
Wed 05:24:00 AM 59.0926 -34.0145 91° East  Level FlightAware Approximate
Wed 05:25:00 AM 59.0901 -33.7290 91° East  Level FlightAware Approximate
Wed 05:26:00 AM 59.0870 -33.4435 91° East  Level FlightAware Approximate
Wed 05:27:00 AM 59.0833 -33.1581 91° East  Level FlightAware Approximate
Wed 05:28:00 AM 59.0789 -32.8728 92° East  Level FlightAware Approximate
Wed 05:29:00 AM 59.0740 -32.5875 92° East  Level FlightAware Approximate
Wed 05:30:00 AM 59.0684 -32.3023 92° East  Level FlightAware Approximate
Wed 05:31:00 AM 59.0621 -32.0172 92° East  Level FlightAware Approximate
Wed 05:32:00 AM 59.0552 -31.7322 93° East  Level FlightAware Approximate
Wed 05:33:00 AM 59.0478 -31.4474 93° East  Level FlightAware Approximate
Wed 05:34:00 AM 59.0396 -31.1626 93° East  Level FlightAware Approximate
Wed 05:35:00 AM 59.0309 -30.8780 93° East  Level FlightAware Approximate
Wed 05:36:00 AM 59.0215 -30.5936 94° East  Level FlightAware Approximate
Wed 05:37:00 AM 59.0116 -30.3093 94° East  Level FlightAware Approximate
Wed 05:38:00 AM 59.0010 -30.0252 94° East  Level FlightAware Approximate
Wed 05:39:00 AM 58.9845 -29.7423 97° East  Level FlightAware Approximate
Wed 05:40:00 AM 58.9669 -29.4598 97° East  Level FlightAware Approximate
Wed 05:41:00 AM 58.9487 -29.1775 97° East  Level FlightAware Approximate
Wed 05:42:00 AM 58.9299 -28.8955 97° East  Level FlightAware Approximate
Wed 05:43:00 AM 58.9105 -28.6139 97° East  Level FlightAware Approximate
Wed 05:44:00 AM 58.8905 -28.3326 98° East  Level FlightAware Approximate
Wed 05:45:00 AM 58.8699 -28.0516 98° East  Level FlightAware Approximate
Wed 05:46:00 AM 58.8486 -27.7709 98° East  Level FlightAware Approximate
Wed 05:47:00 AM 58.8267 -27.4906 98° East  Level FlightAware Approximate
Wed 05:48:00 AM 58.8043 -27.2107 99° East  Level FlightAware Approximate
Wed 05:49:00 AM 58.7812 -26.9311 99° East  Level FlightAware Approximate
Wed 05:50:00 AM 58.7575 -26.6519 99° East  Level FlightAware Approximate
Wed 05:51:00 AM 58.7332 -26.3731 99° East  Level FlightAware Approximate
Wed 05:52:00 AM 58.7084 -26.0947 100° East  Level FlightAware Approximate
Wed 05:53:00 AM 58.6829 -25.8167 100° East  Level FlightAware Approximate
Wed 05:54:00 AM 58.6568 -25.5390 100° East  Level FlightAware Approximate
Wed 05:55:00 AM 58.6301 -25.2619 100° East  Level FlightAware Approximate
Wed 05:56:00 AM 58.6029 -24.9851 101° East  Level FlightAware Approximate
Wed 05:57:00 AM 58.5750 -24.7088 101° East  Level FlightAware Approximate
Wed 05:58:00 AM 58.5466 -24.4329 101° East  Level FlightAware Approximate
Wed 05:59:00 AM 58.5175 -24.1575 101° East  Level FlightAware Approximate
Wed 06:00:00 AM 58.4879 -23.8825 102° East  Level FlightAware Approximate
Wed 06:01:00 AM 58.4576 -23.6080 102° East  Level FlightAware Approximate
Wed 06:02:00 AM 58.4268 -23.3340 102° East  Level FlightAware Approximate
Wed 06:03:00 AM 58.3955 -23.0604 102° East  Level FlightAware Approximate
Wed 06:04:00 AM 58.3635 -22.7874 102° East  Level FlightAware Approximate
Wed 06:05:00 AM 58.3309 -22.5148 103° East  Level FlightAware Approximate
Wed 06:06:00 AM 58.2978 -22.2428 103° East  Level FlightAware Approximate
Wed 06:07:00 AM 58.2641 -21.9712 103° East  Level FlightAware Approximate
Wed 06:08:00 AM 58.2298 -21.7002 103° East  Level FlightAware Approximate
Wed 06:09:00 AM 58.1950 -21.4297 104° East  Level FlightAware Approximate
Wed 06:10:00 AM 58.1595 -21.1598 104° East  Level FlightAware Approximate
Wed 06:11:00 AM 58.1236 -20.8904 104° East  Level FlightAware Approximate
Wed 06:12:00 AM 58.0870 -20.6215 104° East  Level FlightAware Approximate
Wed 06:13:00 AM 58.0499 -20.3532 105° East  Level FlightAware Approximate
Wed 06:14:00 AM 58.0122 -20.0855 105° East  Level FlightAware Approximate
Wed 06:15:00 AM 57.9627 -19.8254 112° Southeast  Level FlightAware Approximate
Wed 06:16:00 AM 57.9073 -19.5695 112° Southeast  Level FlightAware Approximate
Wed 06:17:00 AM 57.8515 -19.3144 112° Southeast  Level FlightAware Approximate
Wed 06:18:00 AM 57.7952 -19.0601 112° Southeast  Level FlightAware Approximate
Wed 06:19:00 AM 57.7383 -18.8066 113° Southeast  Level FlightAware Approximate
Wed 06:20:00 AM 57.6809 -18.5539 113° Southeast  Level FlightAware Approximate
Wed 06:21:00 AM 57.6231 -18.3019 113° Southeast  Level FlightAware Approximate
Wed 06:22:00 AM 57.5647 -18.0508 113° Southeast  Level FlightAware Approximate
Wed 06:23:00 AM 57.5059 -17.8005 114° Southeast  Level FlightAware Approximate
Wed 06:24:00 AM 57.4465 -17.5510 114° Southeast  Level FlightAware Approximate
Wed 06:25:00 AM 57.3867 -17.3023 114° Southeast  Level FlightAware Approximate
Wed 06:26:00 AM 57.3263 -17.0545 114° Southeast  Level FlightAware Approximate
Wed 06:27:00 AM 57.2655 -16.8074 114° Southeast  Level FlightAware Approximate
Wed 06:28:00 AM 57.2042 -16.5612 115° Southeast  Level FlightAware Approximate
Wed 06:29:00 AM 57.1424 -16.3157 115° Southeast  Level FlightAware Approximate
Wed 06:30:00 AM 57.0802 -16.0711 115° Southeast  Level FlightAware Approximate
Wed 06:31:00 AM 57.0175 -15.8274 115° Southeast  Level FlightAware Approximate
Wed 06:32:00 AM 56.9543 -15.5844 115° Southeast  Level FlightAware Approximate
Wed 06:33:00 AM 56.8906 -15.3423 116° Southeast  Level FlightAware Approximate
Wed 06:34:00 AM 56.8265 -15.1010 116° Southeast  Level FlightAware Approximate
Wed 06:35:00 AM 56.7619 -14.8605 116° Southeast  Level FlightAware Approximate
Wed 06:36:00 AM 56.6986 -14.6193 115° Southeast  Level FlightAware Approximate
Wed 06:37:00 AM 56.6353 -14.3785 115° Southeast  Level FlightAware Approximate
Wed 06:38:00 AM 56.5715 -14.1386 116° Southeast  Level FlightAware Approximate
Wed 06:39:00 AM 56.5072 -13.8994 116° Southeast  Level FlightAware Approximate
Wed 06:40:00 AM 56.4425 -13.6611 116° Southeast  Level FlightAware Approximate
Wed 06:41:00 AM 56.3760 -13.4248 117° Southeast  Level FlightAware Approximate
Wed 06:42:00 AM 56.3082 -13.1901 117° Southeast  Level FlightAware Approximate
Wed 06:43:00 AM 56.2400 -12.9562 118° Southeast  Level FlightAware Approximate
Wed 06:44:00 AM 56.1713 -12.7232 118° Southeast  Level FlightAware Approximate
Wed 06:45:00 AM 56.1022 -12.4909 118° Southeast  Level FlightAware Approximate
Wed 06:46:00 AM 56.0327 -12.2596 118° Southeast  Level FlightAware Approximate
Wed 06:47:00 AM 55.9627 -12.0291 118° Southeast  Level FlightAware Approximate
Wed 06:48:00 AM 55.8923 -11.7994 119° Southeast  Level FlightAware Approximate
Wed 06:49:00 AM 55.8215 -11.5705 119° Southeast  Level FlightAware Approximate
Wed 06:50:00 AM 55.7502 -11.3425 119° Southeast  Level FlightAware Approximate
Wed 06:51:00 AM 55.6785 -11.1153 119° Southeast  Level FlightAware Approximate
Wed 06:52:00 AM 55.6064 -10.8889 119° Southeast  Level FlightAware Approximate
Wed 06:53:00 AM 55.5339 -10.6634 120° Southeast  Level FlightAware Approximate
Wed 06:54:00 AM 55.4610 -10.4387 120° Southeast  Level FlightAware Approximate
Wed 06:55:00 AM 55.3877 -10.2149 120° Southeast  Level FlightAware Approximate
Wed 06:55:32 AM 55.7250 -12.4130 120° Southeast 509 586 37,000  Level FlightAware ADS-B
Wed 06:56:00 AM 55.3139 -9.9918 120° Southeast  Level FlightAware Approximate
Wed 06:56:06 AM 55.6750 -12.2550 119° Southeast 517 595 37,000  Level FlightAware ADS-B
Wed 06:56:44 AM 55.6430 -12.1370 116° Southeast 518 596 37,000  Level FlightAware ADS-B
Wed 06:57:16 AM 55.5990 -11.9840 117° Southeast 517 595 37,000  Level FlightAware ADS-B
Wed 06:57:51 AM 55.5620 -11.8550 117° Southeast 517 595 37,000  Level FlightAware ADS-B
Wed 06:58:26 AM 55.5230 -11.7220 117° Southeast 518 596 37,000  Level FlightAware ADS-B
Wed 06:59:01 AM 55.4860 -11.5900 116° Southeast 518 596 37,000  Level FlightAware ADS-B
Wed 06:59:36 AM 55.4460 -11.4580 118° Southeast 518 596 37,000  Level FlightAware ADS-B
Wed 07:00:12 AM 55.4070 -11.3220 117° Southeast 523 602 37,000  Level FlightAware ADS-B
Wed 07:00:47 AM 55.3690 -11.1930 117° Southeast 524 603 37,000  Level FlightAware ADS-B
Wed 07:01:22 AM 55.3290 -11.0570 117° Southeast 526 605 37,000  Level FlightAware ADS-B
Wed 07:01:57 AM 55.2900 -10.9250 117° Southeast 524 603 37,000  Level FlightAware ADS-B
Wed 07:02:32 AM 55.2500 -10.7930 118° Southeast 524 603 37,000  Level FlightAware ADS-B
Wed 07:03:07 AM 55.2110 -10.6620 118° Southeast 525 604 37,000  Level FlightAware ADS-B
Wed 07:03:42 AM 55.1710 -10.5270 117° Southeast 524 603 37,000  Level FlightAware ADS-B
Wed 07:04:17 AM 55.1320 -10.4000 118° Southeast 524 603 37,000  Level FlightAware ADS-B
Wed 07:04:52 AM 55.0920 -10.2690 118° Southeast 521 600 37,000  Level FlightAware ADS-B
Wed 07:05:27 AM 55.0520 -10.1390 118° Southeast 520 598 37,000  Level FlightAware ADS-B
Wed 07:06:02 AM 55.0120 -10.0100 118° Southeast 517 595 37,000  Level FlightAware ADS-B
Wed 07:06:37 AM 54.9720 -9.8810 118° Southeast 514 592 37,000  Level FlightAware ADS-B
Wed 07:07:12 AM 54.9330 -9.7570 119° Southeast 514 592 37,000  Level FlightAware ADS-B
Wed 07:07:47 AM 54.8920 -9.6250 118° Southeast 514 592 37,000  Level FlightAware ADS-B
Wed 07:08:22 AM 54.8520 -9.4980 119° Southeast 514 592 37,000  Level FlightAware ADS-B
Wed 07:08:57 AM 54.8120 -9.3710 119° Southeast 514 592 37,000  Level FlightAware ADS-B
Wed 07:09:32 AM 54.7710 -9.2440 119° Southeast 515 593 37,000  Level FlightAware ADS-B
Wed 07:10:07 AM 54.7310 -9.1170 119° Southeast 514 592 37,000  Level FlightAware ADS-B
Wed 07:10:42 AM 54.6900 -8.9900 119° Southeast 514 592 37,000  Level FlightAware ADS-B
Wed 07:10:44 AM 54.6862 -8.9759 119° Southeast 488 562 37,000  Level FlightAware UK
Wed 07:11:14 AM 54.6510 -8.8678 119° Southeast 490 564 37,000  Level FlightAware UK
Wed 07:11:23 AM 54.6430 -8.8460 119° Southeast 514 592 37,000  Level FlightAware ADS-B
Wed 07:11:57 AM 54.6030 -8.7200 119° Southeast 513 590 37,000  Level FlightAware ADS-B
Wed 07:12:32 AM 54.5610 -8.5950 120° Southeast 512 589 37,000  Level FlightAware ADS-B
Wed 07:13:12 AM 54.5150 -8.4520 119° Southeast 511 588 37,000  Level FlightAware ADS-B
Wed 07:13:42 AM 54.4800 -8.3460 119° Southeast 511 588 37,000  Level FlightAware ADS-B
Wed 07:13:44 AM 54.4747 -8.3305 119° Southeast 486 559 37,000  Level FlightAware UK
Wed 07:14:14 AM 54.4395 -8.2242 119° Southeast 484 557 37,000  Level FlightAware UK
Wed 07:14:17 AM 54.4390 -8.2250 119° Southeast 514 592 37,000  Level FlightAware ADS-B
Wed 07:14:57 AM 54.3910 -8.0800 120° Southeast 514 592 37,000  Level FlightAware ADS-B
Wed 07:15:32 AM 54.3490 -7.9560 120° Southeast 517 595 37,000  Level FlightAware ADS-B
Wed 07:16:02 AM 54.3140 -7.8500 119° Southeast 518 596 37,000  Level FlightAware ADS-B
Wed 07:16:37 AM 54.2710 -7.7260 121° Southeast 518 596 37,000  Level FlightAware ADS-B
Wed 07:17:12 AM 54.2300 -7.6020 119° Southeast 519 597 37,000  Level FlightAware ADS-B
Wed 07:17:47 AM 54.1860 -7.4790 121° Southeast 519 597 37,000  Level FlightAware ADS-B
Wed 07:18:22 AM 54.1460 -7.3590 120° Southeast 518 596 37,000  Level FlightAware ADS-B
Wed 07:18:58 AM 54.1020 -7.2320 121° Southeast 515 593 37,000  Level FlightAware ADS-B
Wed 07:19:32 AM 54.0600 -7.1110 121° Southeast 514 592 37,000  Level FlightAware ADS-B
Wed 07:20:12 AM 54.0110 -6.9720 121° Southeast 510 587 37,000  Level FlightAware ADS-B
Wed 07:20:45 AM 53.9695 -6.8520 121° Southeast 484 557 37,000  Level FlightAware UK
Wed 07:20:47 AM 53.9690 -6.8500 121° Southeast 509 586 37,000  Level FlightAware ADS-B
Wed 07:21:27 AM 53.9210 -6.7160 121° Southeast 511 588 37,000  Level FlightAware ADS-B
Wed 07:22:02 AM 53.8780 -6.5930 121° Southeast 510 587 37,000  Level FlightAware ADS-B
Wed 07:22:37 AM 53.8340 -6.4700 121° Southeast 510 587 37,000  Level FlightAware ADS-B
Wed 07:23:13 AM 53.7900 -6.3470 121° Southeast 509 586 37,000  Level FlightAware ADS-B
Wed 07:23:45 AM 53.7504 -6.2366 121° Southeast 478 550 37,000  Level FlightAware UK
Wed 07:23:45 AM 53.7510 -6.2390 121° Southeast 509 586 37,000  Level FlightAware ADS-B
Wed 07:24:15 AM 53.7137 -6.1351 121° Southeast 478 550 37,000  Level FlightAware UK
Wed 07:24:21 AM 53.7070 -6.1200 121° Southeast 511 588 37,000  Level FlightAware ADS-B
Wed 07:24:57 AM 53.6630 -5.9980 121° Southeast 512 589 37,000  Level FlightAware ADS-B
Wed 07:25:34 AM 53.6180 -5.8760 122° Southeast 514 592 37,000  Level FlightAware ADS-B
Wed 07:26:09 AM 53.5720 -5.7500 122° Southeast 515 593 37,000  Level FlightAware ADS-B
Wed 07:26:41 AM 53.5320 -5.6410 122° Southeast 515 593 37,000  Level FlightAware ADS-B
Wed 07:26:45 AM 53.5268 -5.6252 122° Southeast 480 552 37,000  Level FlightAware UK
Wed 07:27:15 AM 53.4929 -5.5196 122° Southeast 478 550 37,000  Level FlightAware UK
Wed 07:27:17 AM 53.4910 -5.5110 122° Southeast 520 598 37,000  Level FlightAware ADS-B
Wed 07:27:53 AM 53.4760 -5.3720 100° East 526 605 37,000  Level FlightAware ADS-B
Wed 07:28:30 AM 53.4710 -5.2210 93° East 526 605 37,000  Level FlightAware ADS-B
Wed 07:29:02 AM 53.4680 -5.0910 92° East 526 605 37,000  Level FlightAware ADS-B
Wed 07:29:38 AM 53.4640 -4.9410 93° East 525 604 37,000  Level FlightAware ADS-B
Wed 07:30:15 AM 53.4590 -4.7990 93° East 524 603 37,000  Level FlightAware ADS-B
Wed 07:30:52 AM 53.4540 -4.6530 93° East 523 602 37,000  Level FlightAware ADS-B
Wed 07:31:27 AM 53.4490 -4.5070 93° East 521 600 37,000  Level FlightAware ADS-B
Wed 07:31:57 AM 53.4446 -4.3786 93° East 472 543 37,000  Level FlightAware UK
Wed 07:32:04 AM 53.4440 -4.3630 93° East 520 598 37,000  Level FlightAware ADS-B
Wed 07:32:38 AM 53.4380 -4.2190 94° East 519 597 37,000  Level FlightAware ADS-B
Wed 07:33:12 AM 53.4330 -4.0820 93° East 518 596 37,000  Level FlightAware ADS-B
Wed 07:33:47 AM 53.4280 -3.9510 94° East 517 595 37,000  Level FlightAware ADS-B
Wed 07:34:24 AM 53.4210 -3.7950 94° East 516 594 37,000  Level FlightAware ADS-B
Wed 07:34:38 AM 53.4190 -3.7397 93° East 518 596 37,000  Level FlightAware ADS-B
Wed 07:35:41 AM 53.3869 -3.4956 102° East 513 590 37,000  Level FlightAware ADS-B
Wed 07:36:11 AM 53.3562 -3.3849 115° Southeast 510 587 37,000  Level FlightAware ADS-B
Wed 07:36:42 AM 53.3243 -3.2753 116° Southeast 508 585 37,000  Level FlightAware ADS-B
Wed 07:37:13 AM 53.2919 -3.1664 116° Southeast 507 583 37,000  Level FlightAware ADS-B
Wed 07:37:51 AM 53.2524 -3.0340 116° Southeast 505 581 37,000  Level FlightAware ADS-B
Wed 07:38:22 AM 53.2202 -2.9296 117° Southeast 504 580 37,000  Level FlightAware ADS-B
Wed 07:38:53 AM 53.1878 -2.8223 117° Southeast 505 581 37,000 -395 Level FlightAware ADS-B
Wed 07:39:38 AM 53.1412 -2.6688 117° Southeast 503 579 36,500 -987 Descending FlightAware ADS-B
Wed 07:40:12 AM 53.1067 -2.5552 117° Southeast 471 542 35,700 -1,391 Descending FlightAware ADS-B
Wed 07:40:47 AM 53.0730 -2.4550 119° Southeast 459 528 34,900 -1,645 Descending FlightAware ADS-B
Wed 07:41:14 AM 53.0325 -2.3826 133° Southeast 464 534 34,000 -1,846 Descending FlightAware ADS-B
Wed 07:41:52 AM 52.9677 -2.3191 133° Southeast 424 488 32,900 -1,733 Descending FlightAware UK
Wed 07:41:59 AM 52.9570 -2.3110 133° Southeast 417 480 32,700 -2,182 Descending FlightAware ADS-B
Wed 07:42:36 AM 52.8990 -2.2520 148° Southeast 418 481 31,300 -2,087 Descending FlightAware ADS-B
Wed 07:43:08 AM 52.8470 -2.1880 143° Southeast 410 472 30,300 -1,971 Descending FlightAware ADS-B
Wed 07:43:46 AM 52.7872 -2.1167 143° Southeast 390 449 29,000 -1,895 Descending FlightAware UK
Wed 07:43:46 AM 52.7900 -2.1210 143° Southeast 405 466 29,100 -1,688 Climbing FlightAware ADS-B
Wed 07:44:18 AM 52.7410 -2.0640 145° Southeast 401 461 28,100 -1,853 Descending FlightAware ADS-B
Wed 07:44:54 AM 52.6880 -2.0030 145° Southeast 396 456 27,000 -1,810 Descending FlightAware ADS-B
Wed 07:45:21 AM 52.6440 -1.9537 146° Southeast 393 452 26,200 -1,700 Descending FlightAware ADS-B
Wed 07:45:54 AM 52.5950 -1.8978 145° Southeast 390 449 25,300 -1,588 Descending FlightAware ADS-B
Wed 07:46:29 AM 52.5444 -1.8391 145° Southeast 384 442 24,400 -1,569 Descending FlightAware ADS-B
Wed 07:46:59 AM 52.5009 -1.7894 145° Southeast 380 437 23,600 -1,645 Descending FlightAware ADS-B
Wed 07:47:31 AM 52.4544 -1.7358 145° Southeast 375 432 22,700 -1,645 Descending FlightAware ADS-B
Wed 07:48:01 AM 52.4118 -1.6873 145° Southeast 371 427 21,900 -1,552 Descending FlightAware ADS-B
Wed 07:48:29 AM 52.3734 -1.6435 145° Southeast 370 426 21,200 -1,500 Descending FlightAware ADS-B
Wed 07:48:37 AM 52.3631 -1.6289 139° Southeast 371 427 21,000 -1,500 Descending FlightAware ADS-B
Wed 07:49:09 AM 52.3228 -1.5660 136° Southeast 367 422 20,200 -1,469 Descending FlightAware ADS-B
Wed 07:49:26 AM 52.3028 -1.5353 137° Southeast 365 420 19,800 -1,625 Descending FlightAware ADS-B
Wed 07:49:57 AM 52.2671 -1.4703 132° Southeast 362 417 18,900 -1,548 Descending FlightAware ADS-B
Wed 07:50:28 AM 52.2334 -1.4095 132° Southeast 359 413 18,200 -1,475 Descending FlightAware ADS-B
Wed 07:50:58 AM 52.1998 -1.3497 133° Southeast 357 411 17,400 -1,500 Descending FlightAware ADS-B
Wed 07:51:28 AM 52.1662 -1.2906 133° Southeast 354 407 16,700 -1,475 Descending FlightAware ADS-B
Wed 07:51:59 AM 52.1319 -1.2301 133° Southeast 352 405 15,900 -1,377 Descending FlightAware ADS-B
Wed 07:52:29 AM 52.0985 -1.1704 132° Southeast 348 400 15,300 -1,100 Descending FlightAware ADS-B
Wed 07:52:59 AM 52.0659 -1.1138 133° Southeast 342 394 14,800 -787 Descending FlightAware ADS-B
Wed 07:53:30 AM 52.0331 -1.0587 134° Southeast 333 383 14,500 -484 Descending FlightAware ADS-B
Wed 07:54:01 AM 52.0009 -1.0041 134° Southeast 320 368 14,300 -393 Descending FlightAware ADS-B
Wed 07:54:31 AM 51.9698 -0.9518 134° Southeast 310 357 14,100 -787 Descending FlightAware ADS-B
Wed 07:55:02 AM 51.9391 -0.9026 135° Southeast 305 351 13,500 -1,082 Descending FlightAware ADS-B
Wed 07:55:32 AM 51.9094 -0.8537 135° Southeast 305 351 13,000 -787 Descending FlightAware ADS-B
Wed 07:56:03 AM 51.8794 -0.8029 134° Southeast 303 349 12,700 -984 Descending FlightAware ADS-B
Wed 07:56:33 AM 51.8500 -0.7542 134° Southeast 304 350 12,000 -1,400 Descending FlightAware ADS-B
Wed 07:57:03 AM 51.8197 -0.7039 134° Southeast 304 350 11,300 -1,279 Descending FlightAware ADS-B
Wed 07:57:34 AM 51.7901 -0.6552 134° Southeast 303 349 10,700 -1,082 Descending FlightAware ADS-B
Wed 07:58:04 AM 51.7605 -0.6071 135° Southeast 297 342 10,200 -1,043 Descending FlightAware ADS-B
Wed 07:58:20 AM 51.7455 -0.5820 134° Southeast 295 339 9,900 -1,161 Descending FlightAware ADS-B
Wed 07:58:35 AM 51.7309 -0.5585 135° Southeast 293 337 9,600 -1,200 Descending FlightAware ADS-B
Wed 07:58:50 AM 51.7166 -0.5354 135° Southeast 291 335 9,300 -947 Descending FlightAware ADS-B
Wed 07:58:54 AM 51.7124 -0.5299 141° Southeast 289 333 9,300  Level FlightAware ADS-B
Wed 07:58:58 AM 51.7084 -0.5250 143° Southeast 287 330 9,300  Level FlightAware ADS-B
Wed 07:59:01 AM 51.7048 -0.5220 152° Southeast 284 327 9,300  Level FlightAware ADS-B
Wed 07:59:06 AM 51.6983 -0.5182 160° South 279 321 9,300 -600 Level FlightAware ADS-B
Wed 07:59:11 AM 51.6924 -0.5160 167° South 275 316 9,200 -750 Descending FlightAware ADS-B
Wed 07:59:14 AM 51.6880 -0.5151 173° South 270 311 9,200 -1,000 Level FlightAware ADS-B
Wed 07:59:17 AM 51.6843 -0.5150 180° South 269 310 9,100 -857 Descending FlightAware ADS-B
Wed 07:59:21 AM 51.6802 -0.5155 184° South 265 305 9,100 -667 Level FlightAware ADS-B
Wed 07:59:26 AM 51.6736 -0.5175 191° South 262 302 9,000 -667 Descending FlightAware ADS-B
Wed 07:59:30 AM 51.6690 -0.5209 205° Southwest 259 298 9,000  Level FlightAware ADS-B
Wed 07:59:34 AM 51.6653 -0.5235 203° Southwest 258 297 9,000  Level FlightAware ADS-B
Wed 07:59:38 AM 51.6612 -0.5275 211° Southwest 255 293 9,000  Level FlightAware ADS-B
Wed 07:59:43 AM 51.6568 -0.5334 220° Southwest 253 291 9,000  Level FlightAware ADS-B
Wed 07:59:47 AM 51.6536 -0.5388 226° Southwest 251 289 9,000  Level FlightAware ADS-B
Wed 07:59:50 AM 51.6509 -0.5447 233° Southwest 248 285 9,000  Level FlightAware ADS-B
Wed 07:59:54 AM 51.6489 -0.5492 235° Southwest 246 283 9,000  Level FlightAware ADS-B
Wed 07:59:59 AM 51.6464 -0.5590 248° West 242 278 9,000  Level FlightAware ADS-B
Wed 08:00:03 AM 51.6450 -0.5659 252° West 240 276 9,000  Level FlightAware ADS-B
Wed 08:00:07 AM 51.6442 -0.5712 256° West 238 274 9,000  Level FlightAware ADS-B
Wed 08:00:12 AM 51.6437 -0.5816 266° West 237 273 9,000  Level FlightAware ADS-B
Wed 08:00:16 AM 51.6437 -0.5869 270° West 236 272 9,000  Level FlightAware ADS-B
Wed 08:00:22 AM 51.6447 -0.5973 279° West 237 273 9,000  Level FlightAware ADS-B
Wed 08:00:26 AM 51.6458 -0.6042 285° West 236 272 9,000  Level FlightAware ADS-B
Wed 08:00:31 AM 51.6481 -0.6140 291° West 234 269 9,000  Level FlightAware ADS-B
Wed 08:00:40 AM 51.6521 -0.6262 298° West 233 268 9,000  Level FlightAware ADS-B
Wed 08:00:52 AM 51.6582 -0.6465 296° West 233 268 9,000  Level FlightAware ADS-B
Wed 08:01:08 AM 51.6658 -0.6696 298° West 234 269 9,000  Level FlightAware ADS-B
Wed 08:01:22 AM 51.6725 -0.6915 296° West 235 270 9,000  Level FlightAware ADS-B
Wed 08:01:35 AM 51.6792 -0.7133 296° West 232 267 9,000  Level FlightAware ADS-B
Wed 08:01:41 AM 51.6826 -0.7222 302° West 232 267 9,000  Level FlightAware ADS-B
Wed 08:01:46 AM 51.6857 -0.7288 307° West 232 267 9,000  Level FlightAware ADS-B
Wed 08:01:52 AM 51.6907 -0.7360 318° Northwest 233 268 9,000  Level FlightAware ADS-B
Wed 08:01:57 AM 51.6948 -0.7412 322° Northwest 235 270 9,000  Level FlightAware ADS-B
Wed 08:02:01 AM 51.6988 -0.7448 331° Northwest 237 273 9,000  Level FlightAware ADS-B
Wed 08:02:04 AM 51.7019 -0.7471 335° Northwest 238 274 9,000  Level FlightAware ADS-B
Wed 08:02:09 AM 51.7069 -0.7500 340° North 241 277 9,000  Level FlightAware ADS-B
Wed 08:02:15 AM 51.7130 -0.7520 349° North 244 281 9,000  Level FlightAware ADS-B
Wed 08:02:18 AM 51.7166 -0.7525 355° North 246 283 9,000  Level FlightAware ADS-B
Wed 08:02:22 AM 51.7208 -0.7526 359° North 248 285 9,000  Level FlightAware ADS-B
Wed 08:02:25 AM 51.7248 -0.7522 North 251 289 9,000  Level FlightAware ADS-B
Wed 08:02:30 AM 51.7300 -0.7505 11° North 253 291 9,000  Level FlightAware ADS-B
Wed 08:02:34 AM 51.7349 -0.7483 16° North 257 296 9,000  Level FlightAware ADS-B
Wed 08:02:40 AM 51.7410 -0.7434 26° Northeast 262 302 9,000 -600 Level FlightAware ADS-B
Wed 08:02:44 AM 51.7455 -0.7380 36° Northeast 266 306 8,900 -667 Descending FlightAware ADS-B
Wed 08:02:49 AM 51.7500 -0.7327 36° Northeast 269 310 8,900  Level FlightAware ADS-B
Wed 08:02:53 AM 51.7531 -0.7268 50° Northeast 272 313 8,900 -750 Level FlightAware ADS-B
Wed 08:02:57 AM 51.7562 -0.7183 60° Northeast 276 318 8,800 -750 Descending FlightAware ADS-B
Wed 08:03:01 AM 51.7587 -0.7110 61° Northeast 277 319 8,800 -667 Level FlightAware ADS-B
Wed 08:03:06 AM 51.7607 -0.7011 72° East 280 322 8,700 -750 Descending FlightAware ADS-B
Wed 08:03:09 AM 51.7616 -0.6950 76° East 282 325 8,700  Level FlightAware ADS-B
Wed 08:03:13 AM 51.7622 -0.6866 83° East 283 326 8,700 -857 Level FlightAware ADS-B
Wed 08:03:16 AM 51.7622 -0.6802 90° East 284 327 8,600 -750 Descending FlightAware ADS-B
Wed 08:03:21 AM 51.7617 -0.6718 95° East 286 329 8,600 -750 Level FlightAware ADS-B
Wed 08:03:24 AM 51.7607 -0.6634 101° East 286 329 8,500 -750 Descending FlightAware ADS-B
Wed 08:03:29 AM 51.7589 -0.6554 110° East 287 330 8,500  Level FlightAware ADS-B
Wed 08:03:34 AM 51.7559 -0.6456 116° Southeast 285 328 8,500 -600 Level FlightAware ADS-B
Wed 08:03:49 AM 51.7468 -0.6153 116° Southeast 284 327 8,300 -774 Descending FlightAware ADS-B
Wed 08:04:05 AM 51.7374 -0.5870 118° Southeast 283 326 8,100 -581 Descending FlightAware ADS-B
Wed 08:04:20 AM 51.7282 -0.5572 116° Southeast 281 323 8,000 -250 Descending FlightAware ADS-B
Wed 08:04:29 AM 51.7232 -0.5422 118° Southeast 281 323 8,000  Level FlightAware ADS-B
Wed 08:04:36 AM 51.7180 -0.5299 124° Southeast 282 325 8,000  Level FlightAware ADS-B
Wed 08:04:39 AM 51.7151 -0.5233 126° Southeast 280 322 8,000  Level FlightAware ADS-B
Wed 08:04:43 AM 51.7115 -0.5177 136° Southeast 278 320 8,000  Level FlightAware ADS-B
Wed 08:04:50 AM 51.7044 -0.5106 148° Southeast 276 318 8,000  Level FlightAware ADS-B
Wed 08:04:54 AM 51.6993 -0.5062 152° Southeast 273 314 8,000  Level FlightAware ADS-B
Wed 08:05:01 AM 51.6914 -0.5021 162° South 272 313 8,000  Level FlightAware ADS-B
Wed 08:05:09 AM 51.6817 -0.4968 161° South 273 314 8,000  Level FlightAware ADS-B
Wed 08:05:25 AM 51.6628 -0.4884 164° South 274 315 8,000  Level FlightAware ADS-B
Wed 08:05:41 AM 51.6426 -0.4789 164° South 273 314 8,000  Level FlightAware ADS-B
Wed 08:05:53 AM 51.6287 -0.4726 164° South 271 312 8,000  Level FlightAware ADS-B
Wed 08:05:58 AM 51.6228 -0.4695 162° South 271 312 8,000  Level FlightAware ADS-B
Wed 08:06:01 AM 51.6187 -0.4663 154° Southeast 273 314 8,000  Level FlightAware ADS-B
Wed 08:06:07 AM 51.6123 -0.4600 149° Southeast 276 318 8,000  Level FlightAware ADS-B
Wed 08:06:13 AM 51.6068 -0.4533 143° Southeast 278 320 8,000  Level FlightAware ADS-B
Wed 08:06:19 AM 51.6019 -0.4435 129° Southeast 280 322 8,000  Level FlightAware ADS-B
Wed 08:06:22 AM 51.5999 -0.4363 114° Southeast 280 322 8,000  Level FlightAware ADS-B
Wed 08:06:27 AM 51.5972 -0.4269 115° Southeast 280 322 8,000  Level FlightAware ADS-B
Wed 08:06:31 AM 51.5957 -0.4193 108° East 279 321 8,000  Level FlightAware ADS-B
Wed 08:06:47 AM 51.5893 -0.3896 109° East 276 318 8,000 -387 Level FlightAware ADS-B
Wed 08:07:02 AM 51.5833 -0.3587 107° East 274 315 7,800 -1,111 Descending FlightAware ADS-B
Wed 08:07:14 AM 51.5788 -0.3375 109° East 274 315 7,500 -1,333 Descending FlightAware ADS-B
Wed 08:07:20 AM 51.5770 -0.3257 104° East 274 315 7,400 -1,500 Descending FlightAware ADS-B
Wed 08:07:26 AM 51.5756 -0.3116 99° East 273 314 7,200 -1,286 Descending FlightAware ADS-B
Wed 08:07:34 AM 51.5745 -0.2974 97° East 273 314 7,100 -960 Descending FlightAware ADS-B
Wed 08:07:51 AM 51.5726 -0.2631 95° East 272 313 6,800 -1,091 Descending FlightAware ADS-B
Wed 08:08:07 AM 51.5709 -0.2292 95° East 270 311 6,500 -1,125 Descending FlightAware ADS-B
Wed 08:08:23 AM 51.5693 -0.1993 95° East 268 308 6,200 -1,313 Descending FlightAware ADS-B
Wed 08:08:39 AM 51.5675 -0.1657 95° East 267 307 5,800 -1,091 Descending FlightAware ADS-B
Wed 08:08:56 AM 51.5658 -0.1343 95° East 262 302 5,600 -686 Descending FlightAware ADS-B
Wed 08:09:14 AM 51.5641 -0.1004 95° East 251 289 5,400 -649 Descending FlightAware ADS-B
Wed 08:09:33 AM 51.5626 -0.0644 94° East 240 276 5,200 -600 Descending FlightAware ADS-B
Wed 08:09:54 AM 51.5611 -0.0304 94° East 224 258 5,000 -486 Descending FlightAware ADS-B
Wed 08:10:10 AM 51.5544 -0.0074 115° Southeast 208 239 4,900 -462 Descending FlightAware ADS-B
Wed 08:10:20 AM 51.5467 0.0015 144° Southeast 203 234 4,800 -429 Descending FlightAware ADS-B
Wed 08:10:24 AM 51.5433 0.0034 161° South 198 228 4,800  Level FlightAware ADS-B
Wed 08:10:30 AM 51.5381 0.0048 170° South 197 227 4,800 -353 Level FlightAware ADS-B
Wed 08:10:41 AM 51.5278 0.0056 177° South 194 223 4,700 -387 Descending FlightAware ADS-B
Wed 08:11:01 AM 51.5103 0.0061 179° South 194 223 4,600 -300 Descending FlightAware ADS-B
Wed 08:11:21 AM 51.4942 -0.0031 200° South 185 213 4,500 -522 Descending FlightAware ADS-B
Wed 08:11:24 AM 51.4923 -0.0073 234° Southwest 184 212 4,400 -375 Descending FlightAware ADS-B
Wed 08:11:37 AM 51.4867 -0.0223 239° Southwest 181 208 4,400 -182 Level FlightAware ADS-B
Wed 08:11:57 AM 51.4787 -0.0449 240° Southwest 183 211 4,300 -308 Descending FlightAware ADS-B
Wed 08:12:16 AM 51.4708 -0.0672 240° Southwest 180 207 4,200 -240 Descending FlightAware ADS-B
Wed 08:12:22 AM 51.4685 -0.0742 242° Southwest 179 206 4,200 -600 Level FlightAware ADS-B
Wed 08:12:26 AM 51.4673 -0.0791 249° West 177 204 4,100 -750 Descending FlightAware ADS-B
Wed 08:12:30 AM 51.4662 -0.0855 255° West 179 206 4,100 -750 Level FlightAware ADS-B
Wed 08:12:34 AM 51.4657 -0.0908 261° West 180 207 4,000 -1,091 Descending FlightAware ADS-B
Wed 08:12:41 AM 51.4654 -0.0987 267° West 179 206 3,900 -750 Descending FlightAware ADS-B
Wed 08:12:50 AM 51.4654 -0.1119 270° West 180 207 3,800 -960 Descending FlightAware ADS-B
Wed 08:13:06 AM 51.4655 -0.1318 270° West 178 205 3,500 -1,029 Descending FlightAware ADS-B
Wed 08:13:25 AM 51.4655 -0.1572 270° West 178 205 3,200 -1,000 Descending FlightAware ADS-B
Wed 08:13:42 AM 51.4655 -0.1799 270° West 183 211 2,900 -938 Descending FlightAware ADS-B
Wed 08:13:57 AM 51.4655 -0.2004 270° West 184 212 2,700 -1,000 Descending FlightAware ADS-B
Wed 08:14:30 AM 51.4655 -0.2444 270° West 168 193 2,100 -940 Descending FlightAware ADS-B
Wed 08:15:20 AM 51.4650 -0.3030 269° West 161 185 1,400 -822 Descending FlightAware ADS-B
Wed 08:15:43 AM 51.4650 -0.3300 270° West 159 183 1,100 -698 Descending FlightAware ADS-B
Wed 08:16:03 AM 51.4650 -0.3510 270° West 147 169 900 -750 Descending FlightAware ADS-B (CYTZ)
Wed 08:16:23 AM 51.4650 -0.3740 270° West 145 167 600 -900 Descending FlightAware ADS-B
Wed 08:16:43 AM 51.4650 -0.3960 270° West 147 169 300 -750 Descending FlightAware ADS-B
Wed 08:17:03 AM 51.4650 -0.4180 270° West 146 168 100 -600 Descending FlightAware ADS-B
Wed 08:17:23 AM 51.4650 -0.4350 270° West 146 168 -300 Descending FlightAware ADS-B
Wed 08:17:48 AM 51.4650 -0.4580 270° West 146 168  Level FlightAware ADS-B

Login

Don't have an account? Register now (free) for customized features, flight alerts, and more!